Time;durP1;ratioP1;P1;durP2;ratioP2;P2;SDS_P1;SDS_P2;PMS_P1;PMS_P2;Temp;Humidity;BMP_temperature;BMP_pressure;BME280_temperature;BME280_humidity;BME280_pressure;Samples;Min_cycle;Max_cycle;Signal;HPM_P1;HPM_P2
2022/12/14 00:01:36;;;;;;;26.20;12.30;;;;;;;4.12;59.94;97530.81;4361582;33;20114;-80
2022/12/14 00:04:03;;;;;;;31.83;13.85;;;;;;;4.52;58.68;97532.34;4361460;33;20122;-80
2022/12/14 00:06:32;;;;;;;30.23;13.77;;;;;;;4.61;58.07;97532.94;4361135;33;20099;-80
2022/12/14 00:09:02;;;;;;;34.20;13.27;;;;;;;4.46;58.04;97527.38;4347327;33;20095;-80
2022/12/14 00:11:29;;;;;;;32.67;13.65;;;;;;;4.42;58.37;97525.78;4359932;32;20114;-81
2022/12/14 00:13:59;;;;;;;27.58;11.93;;;;;;;4.25;58.89;97521.12;4345941;33;20111;-81
2022/12/14 00:16:28;;;;;;;29.77;13.10;;;;;;;4.09;59.36;97518.13;4359251;33;20083;-81
2022/12/14 00:18:57;;;;;;;28.10;11.40;;;;;;;4.37;58.45;97523.37;4358760;33;20055;-81
2022/12/14 00:21:25;;;;;;;25.12;10.82;;;;;;;4.08;60.27;97531.78;4358456;33;20055;-80
2022/12/14 00:23:53;;;;;;;25.50;11.20;;;;;;;3.50;61.96;97528.06;4358809;33;20100;-81
2022/12/14 00:26:25;;;;;;;26.17;12.18;;;;;;;3.69;61.23;97523.37;4359098;33;20096;-81
2022/12/14 00:28:54;;;;;;;16.87;5.85;;;;;;;3.68;61.96;97529.34;4358866;33;20097;-80
2022/12/14 00:31:23;;;;;;;25.62;11.23;;;;;;;4.00;60.62;97521.75;4358518;33;20115;-80
2022/12/14 00:33:51;;;;;;;27.73;11.57;;;;;;;3.66;62.41;97523.44;4358723;33;20192;-80
2022/12/14 00:36:18;;;;;;;25.37;11.20;;;;;;;3.30;63.39;97527.69;4358926;33;20087;-80
2022/12/14 00:38:45;;;;;;;28.67;11.82;;;;;;;3.37;63.64;97532.59;4359002;33;20101;-81
2022/12/14 00:41:15;;;;;;;27.23;11.35;;;;;;;2.96;65.66;97538.56;4357972;33;20083;-80
2022/12/14 00:43:42;;;;;;;27.70;12.50;;;;;;;3.54;63.49;97524.56;4358678;33;20099;-80
2022/12/14 00:46:09;;;;;;;30.75;12.95;;;;;;;3.52;63.00;97525.50;4359260;33;20068;-80
2022/12/14 00:48:36;;;;;;;24.80;10.65;;;;;;;2.77;65.61;97525.41;4358934;33;20091;-80
2022/12/14 00:51:04;;;;;;;;;;;;;;;3.16;65.00;97527.97;4358788;33;20074;-80
2022/12/14 00:53:31;;;;;;;29.90;11.88;;;;;;;3.14;65.20;97530.56;4358614;33;19955;-80
2022/12/14 00:56:03;;;;;;;;;;;;;;;2.90;66.36;97531.91;4359811;33;20064;-80
2022/12/14 00:58:29;;;;;;;28.65;11.90;;;;;;;2.75;66.22;97533.91;4359125;33;19971;-80
2022/12/14 01:01:00;;;;;;;28.92;12.27;;;;;;;3.31;63.86;97532.75;4359024;33;20084;-80
2022/12/14 01:03:27;;;;;;;28.73;13.13;;;;;;;3.19;65.10;97535.56;4358765;33;20115;-80
2022/12/14 01:05:55;;;;;;;31.90;14.18;;;;;;;2.75;66.14;97531.37;4358296;33;20074;-80
2022/12/14 01:08:22;;;;;;;27.40;12.68;;;;;;;3.04;66.34;97530.78;4359139;33;20096;-80
2022/12/14 01:10:52;;;;;;;35.42;14.20;;;;;;;2.72;66.35;97528.88;4359485;33;20075;-80
2022/12/14 01:13:18;;;;;;;31.00;13.02;;;;;;;2.88;67.54;97528.56;4360516;33;20071;-80
2022/12/14 01:15:45;;;;;;;38.15;14.35;;;;;;;2.74;68.16;97530.53;4360849;33;20078;-80
2022/12/14 01:18:12;;;;;;;30.12;14.05;;;;;;;2.68;68.80;97529.84;4360655;33;20075;-80
2022/12/14 01:20:46;;;;;;;26.98;11.90;;;;;;;2.23;70.23;97528.12;4361314;33;20086;-80
2022/12/14 01:23:13;;;;;;;30.67;13.30;;;;;;;3.01;67.29;97529.16;4362602;33;20126;-80
2022/12/14 01:25:40;;;;;;;41.67;16.10;;;;;;;2.92;67.60;97523.41;4361784;33;20067;-80
2022/12/14 01:28:07;;;;;;;;;;;;;;;2.87;67.47;97520.94;4362471;33;20075;-80
2022/12/14 01:30:38;;;;;;;30.55;13.15;;;;;;;3.12;65.62;97516.16;4361456;33;19947;-80
2022/12/14 01:33:05;;;;;;;28.23;11.10;;;;;;;3.09;65.80;97512.00;4361670;33;20079;-80
2022/12/14 01:35:32;;;;;;;;;;;;;;;2.60;68.15;97501.97;4362122;33;20119;-80
2022/12/14 01:37:59;;;;;;;27.98;12.25;;;;;;;3.10;66.87;97498.38;4361493;33;19954;-80
2022/12/14 01:40:27;;;;;;;31.42;13.68;;;;;;;3.27;66.02;97499.69;4360271;33;20382;-80
2022/12/14 01:42:54;;;;;;;30.17;12.40;;;;;;;2.86;66.39;97496.31;4359968;33;20733;-80
2022/12/14 01:45:21;;;;;;;;;;;;;;;1.40;72.43;97493.03;4360091;33;20060;-80
2022/12/14 01:47:53;;;;;;;29.75;13.10;;;;;;;2.55;68.08;97496.09;4359877;33;19942;-80
2022/12/14 01:50:34;;;;;;;31.17;13.00;;;;;;;2.50;68.69;97491.09;4359746;33;20056;-80
2022/12/14 01:53:05;;;;;;;30.40;12.77;;;;;;;2.32;68.55;97489.75;4345206;33;20103;-80
2022/12/14 01:55:36;;;;;;;32.60;13.45;;;;;;;1.95;70.74;97481.13;4359131;33;20067;-80
2022/12/14 01:58:10;;;;;;;31.17;13.13;;;;;;;2.51;67.70;97487.69;4358052;33;20084;-80
2022/12/14 02:00:45;;;;;;;27.23;12.35;;;;;;;1.97;70.26;97487.00;4358258;33;20059;-80
2022/12/14 02:03:18;;;;;;;29.58;13.02;;;;;;;2.02;71.04;97477.56;4358541;33;20118;-80
2022/12/14 02:05:57;;;;;;;30.33;12.93;;;;;;;2.17;69.97;97484.13;4359449;33;20096;-80
2022/12/14 02:08:24;;;;;;;22.52;9.95;;;;;;;1.93;69.71;97472.69;4345987;33;20091;-80
2022/12/14 02:10:52;;;;;;;31.62;13.23;;;;;;;1.98;70.26;97473.41;4359422;33;20055;-80
2022/12/14 02:13:30;;;;;;;28.77;11.80;;;;;;;2.69;68.21;97467.81;4358843;33;20708;-81
2022/12/14 02:15:57;;;;;;;31.27;12.60;;;;;;;2.98;66.39;97462.09;4345271;33;20090;-80
2022/12/14 02:18:27;;;;;;;29.05;12.35;;;;;;;3.11;65.78;97458.41;4359338;33;20074;-80
2022/12/14 02:21:01;;;;;;;25.65;10.45;;;;;;;2.81;66.04;97457.38;4358793;33;20106;-80
2022/12/14 02:23:41;;;;;;;26.20;11.93;;;;;;;3.48;63.52;97449.03;4359293;33;20103;-80
2022/12/14 02:26:42;;;;;;;30.90;11.45;;;;;;;2.51;68.68;97446.94;4359220;33;20078;-80
2022/12/14 02:29:20;;;;;;;25.98;11.38;;;;;;;2.74;66.94;97445.63;4328937;33;20091;-81
2022/12/14 02:32:02;;;;;;;25.33;11.27;;;;;;;2.84;66.33;97436.91;4358528;33;20083;-80
2022/12/14 02:34:41;;;;;;;24.77;10.65;;;;;;;2.38;68.44;97442.97;4344830;33;20107;-80
2022/12/14 02:37:26;;;;;;;18.62;7.85;;;;;;;2.46;68.09;97450.47;4357511;33;20087;-80
2022/12/14 02:40:38;;;;;;;30.85;12.23;;;;;;;2.16;69.52;97440.00;4358931;33;20064;-80
2022/12/14 02:43:28;;;;;;;30.58;13.35;;;;;;;2.11;70.84;97451.12;4356453;33;20064;-80
2022/12/14 02:46:38;;;;;;;24.85;10.30;;;;;;;3.02;67.35;97450.97;4352302;33;20092;-80
2022/12/14 02:49:12;;;;;;;26.23;11.77;;;;;;;3.24;65.60;97452.16;4347626;33;20093;-80
2022/12/14 02:52:02;;;;;;;29.92;11.85;;;;;;;2.95;66.77;97451.97;4362030;33;20056;-80
2022/12/14 02:54:34;;;;;;;30.33;12.73;;;;;;;2.43;69.74;97447.97;4361833;33;20056;-80
2022/12/14 02:57:27;;;;;;;25.85;10.68;;;;;;;2.48;69.59;97456.37;4361419;33;20063;-80
2022/12/14 02:59:59;;;;;;;33.17;13.95;;;;;;;2.31;70.22;97452.44;4361097;33;20079;-80
2022/12/14 03:02:27;;;;;;;28.38;13.02;;;;;;;3.04;67.00;97444.97;4348116;33;20115;-80
2022/12/14 03:04:54;;;;;;;29.67;12.85;;;;;;;2.25;69.87;97457.66;4347173;33;20107;-80
2022/12/14 03:07:25;;;;;;;29.00;13.38;;;;;;;2.46;68.58;97456.41;4360190;33;20120;-80
2022/12/14 03:09:53;;;;;;;27.05;10.23;;;;;;;2.59;69.25;97451.88;4360013;33;20078;-80
2022/12/14 03:12:21;;;;;;;26.02;12.05;;;;;;;2.87;67.07;97444.47;4359155;33;20095;-80
2022/12/14 03:14:52;;;;;;;29.75;12.57;;;;;;;2.71;67.46;97448.25;4359321;33;20429;-80
2022/12/14 03:17:22;;;;;;;28.00;11.52;;;;;;;1.99;70.33;97439.47;4360857;33;20063;-80
2022/12/14 03:20:14;;;;;;;28.85;12.50;;;;;;;2.18;70.75;97434.88;4348829;33;20536;-80
2022/12/14 03:22:56;;;;;;;26.48;11.12;;;;;;;2.48;69.66;97441.09;4342207;33;20063;-80
2022/12/14 03:25:27;;;;;;;27.65;12.15;;;;;;;2.07;70.33;97435.09;4360991;33;20060;-80
2022/12/14 03:28:05;;;;;;;27.55;12.23;;;;;;;2.05;71.64;97426.66;4347962;33;20080;-80
2022/12/14 03:30:35;;;;;;;34.00;13.77;;;;;;;1.59;73.59;97422.38;4348037;33;20121;-80
2022/12/14 03:33:23;;;;;;;27.70;11.23;;;;;;;1.81;73.07;97429.62;4350535;33;20082;-80
2022/12/14 03:35:56;;;;;;;26.20;10.82;;;;;;;2.07;71.47;97429.16;4348586;33;20083;-80
2022/12/14 03:38:27;;;;;;;23.40;9.25;;;;;;;2.16;69.83;97426.44;4361047;33;20063;-80
2022/12/14 03:41:03;;;;;;;27.70;10.90;;;;;;;1.54;73.54;97425.87;4361449;33;20063;-80
2022/12/14 03:43:35;;;;;;;23.23;7.62;;;;;;;1.79;72.57;97416.09;4361399;33;20803;-80
2022/12/14 03:46:05;;;;;;;19.25;8.38;;;;;;;2.33;70.40;97419.31;4361383;33;20075;-80
2022/12/14 03:48:44;;;;;;;23.75;7.57;;;;;;;2.58;69.05;97419.66;4361109;33;20146;-80
2022/12/14 03:51:36;;;;;;;28.02;10.65;;;;;;;2.51;68.57;97415.56;4348363;33;20083;-81
2022/12/14 03:54:26;;;;;;;26.67;12.05;;;;;;;2.45;69.01;97408.91;4360524;33;20068;-80
2022/12/14 03:57:15;;;;;;;33.15;11.98;;;;;;;2.08;70.54;97407.94;4360317;33;20056;-80
2022/12/14 04:00:00;;;;;;;33.75;14.60;;;;;;;2.35;70.41;97401.47;4347359;33;20068;-80
2022/12/14 04:02:39;;;;;;;25.62;10.75;;;;;;;2.06;71.32;97414.75;4359733;33;20068;-80
2022/12/14 04:05:25;;;;;;;32.25;13.20;;;;;;;1.83;72.48;97410.94;4361356;33;20079;-80
2022/12/14 04:08:02;;;;;;;27.98;11.30;;;;;;;1.98;71.27;97389.47;4361730;33;20056;-80
2022/12/14 04:19:28;;;;;;;28.20;11.48;;;;;;;1.99;72.57;97384.34;4363419;33;20048;-80
2022/12/14 04:22:00;;;;;;;26.55;9.27;;;;;;;1.62;71.95;97370.63;4362710;33;20118;-80
2022/12/14 04:27:50;;;;;;;15.95;5.35;;;;;;;1.29;75.03;97350.03;4351877;33;20063;-80
2022/12/14 04:30:23;;;;;;;31.60;13.30;;;;;;;2.37;69.80;97342.00;4349802;33;20177;-80
2022/12/14 04:32:59;;;;;;;24.23;9.45;;;;;;;1.99;72.09;97378.41;4362542;33;20110;-80
2022/12/14 04:35:36;;;;;;;34.13;13.45;;;;;;;2.37;69.79;97374.28;4348372;33;20126;-80
2022/12/14 04:38:09;;;;;;;27.25;12.30;;;;;;;2.32;69.42;97372.63;4348559;33;20068;-80
2022/12/14 04:40:38;;;;;;;31.77;13.93;;;;;;;1.69;72.83;97373.03;4349693;33;20088;-80
2022/12/14 04:43:08;;;;;;;31.20;12.82;;;;;;;2.07;71.81;97360.47;4349369;33;20080;-80
2022/12/14 04:45:41;;;;;;;31.55;13.13;;;;;;;1.96;72.15;97370.84;4361263;33;20109;-80
2022/12/14 04:48:16;;;;;;;30.45;11.90;;;;;;;1.39;74.31;97371.87;4348884;33;20150;-80
2022/12/14 04:51:24;;;;;;;32.92;12.70;;;;;;;1.52;74.85;97367.41;4348103;33;20079;-80
2022/12/14 04:53:55;;;;;;;29.92;13.15;;;;;;;1.43;74.80;97375.22;4361044;33;20076;-80
2022/12/14 04:56:46;;;;;;;32.92;13.55;;;;;;;1.63;72.91;97380.78;4346845;33;20099;-80
2022/12/14 04:59:13;;;;;;;30.85;13.75;;;;;;;1.69;73.18;97374.72;4349838;33;20059;-80
2022/12/14 05:01:49;;;;;;;;;;;;;;;1.75;72.29;97374.62;4347281;33;20064;-80
2022/12/14 05:04:33;;;;;;;30.25;11.80;;;;;;;1.57;73.77;97367.31;4360085;33;19951;-80
2022/12/14 05:07:21;;;;;;;21.77;8.75;;;;;;;0.99;75.93;97353.91;4359438;33;20059;-80
2022/12/14 05:09:58;;;;;;;31.45;11.43;;;;;;;0.76;77.96;97358.50;4358510;33;20067;-80
2022/12/14 05:12:40;;;;;;;27.20;11.82;;;;;;;0.79;78.31;97363.53;4359111;33;20086;-80
2022/12/14 05:15:35;;;;;;;26.70;10.25;;;;;;;0.58;78.92;97362.16;4359087;33;20162;-80
2022/12/14 05:18:05;;;;;;;30.62;11.77;;;;;;;1.04;78.04;97361.44;4343193;33;20172;-80
2022/12/14 05:20:32;;;;;;;20.77;7.72;;;;;;;0.55;79.36;97378.25;4344735;33;20063;-80
2022/12/14 05:22:59;;;;;;;;;;;;;;;0.71;79.39;97375.50;4359571;33;20119;-80
2022/12/14 05:25:26;;;;;;;16.83;8.38;;;;;;;0.63;80.09;97380.69;4358856;33;19965;-80
2022/12/14 05:27:53;;;;;;;;;;;;;;;0.69;80.17;97370.44;4358366;33;20055;-80
2022/12/14 05:30:21;;;;;;;25.88;12.40;;;;;;;1.05;79.40;97361.41;4358940;33;19962;-80
2022/12/14 05:32:49;;;;;;;34.47;16.08;;;;;;;0.64;81.35;97348.50;4359863;33;20082;-80
2022/12/14 05:35:16;;;;;;;30.55;13.18;;;;;;;0.81;79.36;97334.72;4360795;33;20068;-80
2022/12/14 05:37:42;;;;;;;28.15;13.35;;;;;;;0.33;82.08;97337.97;4359616;33;20082;-80
2022/12/14 05:40:17;;;;;;;;;;;;;;;0.56;81.19;97335.94;4361626;33;20125;-80
2022/12/14 05:42:44;;;;;;;27.75;11.93;;;;;;;0.80;81.21;97324.59;4361939;33;19946;-80
2022/12/14 05:45:17;;;;;;;32.60;13.85;;;;;;;0.31;83.42;97337.97;4362557;33;20116;-80
2022/12/14 05:47:44;;;;;;;;;;;;;;;0.60;82.58;97340.09;4362125;33;20064;-80
2022/12/14 05:50:19;;;;;;;36.50;15.35;;;;;;;0.42;82.70;97331.03;4361796;33;19970;-80
2022/12/14 05:52:46;;;;;;;34.78;12.40;;;;;;;1.02;79.94;97340.31;4361080;33;20087;-80
2022/12/14 05:55:12;;;;;;;;;;;;;;;0.43;81.43;97332.75;4361768;33;20078;-80
2022/12/14 05:57:39;;;;;;;29.95;13.57;;;;;;;0.88;80.63;97322.75;4361005;33;19951;-80
2022/12/14 06:00:09;;;;;;;;;;;;;;;0.88;79.02;97311.78;4360865;33;20063;-80
2022/12/14 06:02:36;;;;;;;19.45;9.65;;;;;;;0.60;80.66;97319.78;4359981;33;19963;-80
2022/12/14 06:05:03;;;;;;;;;;;;;;;0.84;80.00;97324.50;4360779;33;20070;-80
2022/12/14 06:07:30;;;;;;;34.10;12.80;;;;;;;0.83;81.02;97338.06;4360492;33;19951;-80
2022/12/14 06:10:02;;;;;;;;;;;;;;;0.60;82.13;97337.56;4360643;33;20159;-80
2022/12/14 06:12:29;;;;;;;25.80;9.38;;;;;;;1.29;78.21;97350.03;4360119;33;19955;-80
2022/12/14 06:14:56;;;;;;;;;;;;;;;1.87;74.29;97356.59;4360658;33;20063;-80
2022/12/14 06:17:23;;;;;;;28.52;10.40;;;;;;;0.39;80.16;97358.19;4361190;33;19978;-80
2022/12/14 06:19:55;;;;;;;;;;;;;;;0.44;80.96;97336.97;4361609;33;20068;-80
2022/12/14 06:22:22;;;;;;;30.62;11.43;;;;;;;0.50;80.23;97328.41;4361401;33;20694;-80
2022/12/14 06:24:49;;;;;;;;;;;;;;;0.69;79.77;97316.28;4360868;33;20068;-80
2022/12/14 06:27:16;;;;;;;34.70;13.30;;;;;;;0.84;79.92;97326.19;4361692;33;19956;-80
2022/12/14 06:29:44;;;;;;;38.85;15.15;;;;;;;0.98;78.84;97313.28;4362993;33;20098;-80
2022/12/14 06:32:11;;;;;;;36.60;14.07;;;;;;;0.32;82.37;97316.84;4362952;33;20063;-80
2022/12/14 06:34:38;;;;;;;;;;;;;;;0.03;83.32;97318.91;4363271;33;20059;-80
2022/12/14 06:37:08;;;;;;;19.25;8.70;;;;;;;1.19;77.58;97312.09;4363271;33;19966;-80
2022/12/14 06:39:49;;;;;;;34.63;15.20;;;;;;;0.69;80.61;97304.44;4363135;33;20047;-80
2022/12/14 06:42:20;;;;;;;29.70;12.05;;;;;;;0.40;82.00;97306.56;4362693;33;20079;-80
2022/12/14 06:44:46;;;;;;;;;;;;;;;0.81;79.47;97296.63;4362463;33;20086;-80
2022/12/14 06:47:13;;;;;;;34.63;12.32;;;;;;;0.52;80.96;97297.06;4360776;33;19961;-79
2022/12/14 06:49:42;;;;;;;;;;;;;;;0.81;79.35;97296.63;4359725;33;20083;-80
2022/12/14 06:52:09;;;;;;;27.10;11.45;;;;;;;0.51;80.40;97290.31;4362260;33;19961;-79
2022/12/14 06:54:36;;;;;;;33.63;13.80;;;;;;;0.68;80.44;97281.59;4363481;33;20082;-80
2022/12/14 06:57:03;;;;;;;;;;;;;;;1.14;77.95;97296.91;4357434;33;20064;-79
2022/12/14 06:59:29;;;;;;;35.33;13.82;;;;;;;0.75;77.91;97319.59;4354905;33;19986;-79
2022/12/14 07:01:56;;;;;;;;;;;;;;;1.02;78.69;97304.75;4356448;33;20059;-79
2022/12/14 07:04:23;;;;;;;36.90;14.35;;;;;;;0.86;78.98;97292.31;4356190;33;20286;-79
2022/12/14 07:06:50;;;;;;;;;;;;;;;1.01;78.03;97278.50;4353572;33;20100;-79
2022/12/14 07:09:17;;;;;;;33.58;13.10;;;;;;;1.44;75.30;97282.81;4355355;33;19985;-79
2022/12/14 07:11:43;;;;;;;;;;;;;;;0.59;79.72;97272.44;4357391;33;20087;-79
2022/12/14 07:14:15;;;;;;;18.17;8.45;;;;;;;1.25;77.31;97278.94;4356693;33;19982;-80
2022/12/14 07:16:42;;;;;;;23.98;10.05;;;;;;;1.63;75.57;97271.44;4355798;33;20074;-78
2022/12/14 07:19:14;;;;;;;20.52;7.78;;;;;;;0.27;80.91;97275.44;4356704;33;20472;-76
2022/12/14 07:21:40;;;;;;;;;;;;;;;1.27;77.59;97288.19;4351908;33;20473;-76
2022/12/14 07:24:07;;;;;;;36.13;14.55;;;;;;;0.88;78.46;97273.66;4350741;33;19974;-77
2022/12/14 07:26:35;;;;;;;34.50;13.65;;;;;;;0.57;80.17;97284.31;4351262;33;20133;-87
2022/12/14 07:29:02;;;;;;;25.98;9.77;;;;;;;1.24;77.58;97295.87;4350828;33;20106;-88
2022/12/14 07:31:28;;;;;;;;;;;;;;;1.20;76.92;97294.28;4351297;33;20087;-87
2022/12/14 07:33:57;;;;;;;33.20;14.40;;;;;;;1.48;76.92;97288.69;4350970;33;20352;-85
2022/12/14 07:36:26;;;;;;;31.77;12.93;;;;;;;1.25;75.89;97287.41;4350955;33;20087;-85
2022/12/14 07:38:57;;;;;;;36.55;12.35;;;;;;;2.08;72.61;97290.88;4350819;33;20090;-84
2022/12/14 07:41:26;;;;;;;26.80;11.38;;;;;;;1.70;73.32;97298.44;4350647;33;20083;-87
2022/12/14 07:43:54;;;;;;;29.55;12.93;;;;;;;2.29;70.59;97295.50;4350905;33;20156;-85
2022/12/14 07:46:24;;;;;;;28.12;10.30;;;;;;;2.55;69.61;97295.78;4352423;33;20146;-86
2022/12/14 07:48:55;;;;;;;33.03;13.07;;;;;;;1.78;71.95;97294.87;4351289;33;20080;-84
2022/12/14 07:51:30;;;;;;;27.85;12.27;;;;;;;1.68;72.62;97284.88;4350444;33;20087;-87
2022/12/14 07:54:00;;;;;;;36.28;13.48;;;;;;;1.91;72.14;97269.16;4350861;33;20437;-84
2022/12/14 07:56:29;;;;;;;23.60;8.35;;;;;;;1.71;74.44;97268.75;4351009;33;20095;-84
2022/12/14 07:58:58;;;;;;;30.48;12.02;;;;;;;1.96;72.07;97269.91;4350558;33;20084;-87
2022/12/14 08:01:29;;;;;;;21.60;8.77;;;;;;;1.50;72.92;97292.88;4350047;33;20083;-85
2022/12/14 08:04:04;;;;;;;27.15;9.65;;;;;;;1.51;73.08;97297.09;4337644;33;20154;-84
2022/12/14 08:06:32;;;;;;;21.45;8.95;;;;;;;1.52;73.81;97303.87;4350538;33;20095;-85
2022/12/14 08:08:59;;;;;;;28.70;11.45;;;;;;;2.01;70.34;97303.72;4338126;33;20076;-84
2022/12/14 08:11:27;;;;;;;20.75;8.48;;;;;;;1.49;72.86;97313.22;4350773;33;20150;-87
2022/12/14 08:13:59;;;;;;;23.85;9.70;;;;;;;1.17;74.17;97312.13;4350536;33;20402;-87
2022/12/14 08:16:27;;;;;;;29.90;12.10;;;;;;;1.22;74.91;97310.34;4350613;33;20091;-86
2022/12/14 08:18:55;;;;;;;26.05;11.07;;;;;;;1.96;71.74;97315.72;4350242;33;20118;-87
2022/12/14 08:21:23;;;;;;;26.40;11.23;;;;;;;1.65;72.66;97318.00;4351322;33;20075;-87
2022/12/14 08:23:50;;;;;;;18.80;7.20;;;;;;;1.75;71.96;97311.03;4351491;33;20099;-89
2022/12/14 08:26:18;;;;;;;22.67;9.30;;;;;;;1.52;72.93;97293.69;4350704;33;20092;-88
2022/12/14 08:28:45;;;;;;;23.38;8.27;;;;;;;1.24;73.55;97300.97;4350570;33;20092;-88
2022/12/14 08:31:15;;;;;;;23.73;10.50;;;;;;;1.47;72.41;97299.72;4351831;33;20335;-89
2022/12/14 08:33:44;;;;;;;20.75;8.18;;;;;;;1.65;72.10;97304.47;4338498;33;20164;-87
2022/12/14 08:36:23;;;;;;;22.87;8.75;;;;;;;1.00;74.82;97321.72;4351010;33;20103;-87
2022/12/14 08:39:01;;;;;;;24.90;10.07;;;;;;;0.69;76.59;97306.97;4337287;33;20083;-88
2022/12/14 08:41:28;;;;;;;21.83;9.68;;;;;;;0.73;77.46;97311.13;4336790;33;20106;-87
2022/12/14 08:43:57;;;;;;;22.60;8.90;;;;;;;1.10;75.32;97305.47;4351938;33;20067;-86
2022/12/14 08:46:26;;;;;;;18.58;8.40;;;;;;;0.99;74.33;97287.87;4350723;33;20113;-87
2022/12/14 08:48:53;;;;;;;26.42;9.70;;;;;;;1.19;75.37;97304.47;4350769;33;20382;-88
2022/12/14 08:51:22;;;;;;;21.80;8.35;;;;;;;2.15;69.57;97302.63;4337095;33;20083;-86
2022/12/14 08:53:49;;;;;;;25.20;10.05;;;;;;;1.88;70.18;97289.56;4337267;33;20167;-86
2022/12/14 08:56:19;;;;;;;15.18;6.65;;;;;;;1.59;72.64;97302.84;4350618;33;20083;-86
2022/12/14 08:58:46;;;;;;;21.52;7.62;;;;;;;2.14;68.96;97319.59;4350681;33;20102;-86
2022/12/14 09:01:16;;;;;;;27.05;11.48;;;;;;;2.18;69.23;97300.00;4350202;33;20079;-87
2022/12/14 09:03:44;;;;;;;27.08;10.50;;;;;;;2.01;68.70;97307.97;4351054;33;20095;-87
2022/12/14 09:06:19;;;;;;;24.15;9.52;;;;;;;2.26;68.15;97296.41;4351099;33;20096;-85
2022/12/14 09:08:46;;;;;;;26.15;12.05;;;;;;;2.84;65.94;97286.59;4349535;33;20151;-85
2022/12/14 09:11:17;;;;;;;25.33;10.10;;;;;;;2.65;65.78;97270.91;4336824;33;20138;-81
2022/12/14 09:13:45;;;;;;;25.95;9.88;;;;;;;2.02;68.78;97268.94;4348732;33;20099;-80
2022/12/14 09:16:16;;;;;;;25.95;9.77;;;;;;;1.85;70.63;97266.75;4349697;33;20109;-81
2022/12/14 09:18:44;;;;;;;33.47;12.55;;;;;;;2.15;68.51;97265.28;4350114;33;20439;-81
2022/12/14 09:21:12;;;;;;;27.40;11.77;;;;;;;2.07;69.09;97266.31;4349960;33;20075;-80
2022/12/14 09:23:39;;;;;;;22.35;10.48;;;;;;;1.57;71.90;97258.84;4349667;33;20422;-81
2022/12/14 09:26:09;;;;;;;24.42;10.50;;;;;;;2.06;67.67;97262.09;4350129;33;20446;-82
2022/12/14 09:28:38;;;;;;;19.08;7.87;;;;;;;1.86;70.03;97263.34;4350185;33;20505;-81
2022/12/14 09:31:08;;;;;;;25.05;10.13;;;;;;;1.83;69.01;97255.78;4336268;33;20430;-82
2022/12/14 09:33:36;;;;;;;25.40;10.25;;;;;;;1.35;72.57;97237.25;4336493;33;20102;-81
2022/12/14 09:36:13;;;;;;;27.55;11.07;;;;;;;1.30;74.10;97246.66;4349409;33;20114;-81
2022/12/14 09:38:42;;;;;;;27.33;12.15;;;;;;;0.93;75.63;97239.69;4350006;33;20088;-82
2022/12/14 09:41:29;;;;;;;30.58;12.35;;;;;;;1.03;76.17;97235.28;4349887;33;20079;-80
2022/12/14 09:44:04;;;;;;;28.65;11.30;;;;;;;1.54;74.47;97230.09;4349531;33;20442;-82
2022/12/14 09:46:59;;;;;;;26.08;10.65;;;;;;;1.92;71.90;97216.59;4348684;33;20442;-81
2022/12/14 09:49:54;;;;;;;24.85;10.27;;;;;;;1.28;73.59;97225.53;4337771;33;20104;-83
2022/12/14 09:52:39;;;;;;;27.17;11.12;;;;;;;0.97;75.68;97217.63;4340623;33;20076;-82
2022/12/14 09:55:18;;;;;;;26.30;11.18;;;;;;;0.65;78.82;97216.50;4348847;33;20119;-81
2022/12/14 09:57:46;;;;;;;23.33;9.10;;;;;;;1.36;75.08;97209.25;4348870;33;20118;-81
2022/12/14 10:00:18;;;;;;;24.77;9.75;;;;;;;1.92;71.32;97197.09;4335569;33;20165;-80
2022/12/14 10:03:00;;;;;;;24.52;10.60;;;;;;;1.96;71.39;97198.69;4349709;33;20113;-81
2022/12/14 10:05:44;;;;;;;29.05;10.75;;;;;;;2.38;70.32;97190.94;4349375;33;20391;-81
2022/12/14 10:08:33;;;;;;;21.98;9.68;;;;;;;1.67;72.18;97194.22;4336547;33;20165;-82
2022/12/14 10:11:29;;;;;;;25.60;10.85;;;;;;;1.51;72.50;97187.78;4348210;33;20087;-83
2022/12/14 10:14:14;;;;;;;20.50;10.05;;;;;;;1.86;72.43;97186.19;4326721;33;20076;-86
2022/12/14 10:16:57;;;;;;;19.00;7.47;;;;;;;2.02;69.68;97192.59;4350054;33;20099;-82
2022/12/14 10:20:03;;;;;;;24.05;9.35;;;;;;;1.49;72.71;97187.00;4348406;33;20107;-82
2022/12/14 10:22:36;;;;;;;26.08;9.50;;;;;;;1.93;70.79;97180.94;4324535;33;20114;-82
2022/12/14 10:25:24;;;;;;;28.20;10.07;;;;;;;1.73;71.48;97185.62;4334330;33;20477;-82
2022/12/14 10:27:55;;;;;;;26.20;11.70;;;;;;;2.25;70.50;97180.22;4349758;33;20442;-82
2022/12/14 10:30:40;;;;;;;33.00;12.90;;;;;;;2.31;69.29;97176.66;4337724;33;20411;-83
2022/12/14 10:33:22;;;;;;;29.80;12.32;;;;;;;2.19;69.25;97185.44;4335891;33;20098;-83
2022/12/14 10:35:52;;;;;;;28.17;11.77;;;;;;;2.47;68.57;97188.16;4349483;33;20110;-82
2022/12/14 10:38:33;;;;;;;25.23;10.82;;;;;;;2.62;68.02;97184.41;4349621;33;20114;-83
2022/12/14 10:41:14;;;;;;;25.55;9.70;;;;;;;2.27;68.40;97175.06;4348957;33;20111;-83
2022/12/14 10:43:53;;;;;;;23.83;10.15;;;;;;;1.76;70.58;97160.13;4336004;33;20118;-83
2022/12/14 10:46:55;;;;;;;26.35;10.35;;;;;;;2.05;68.97;97162.03;4348992;33;20606;-83
2022/12/14 10:49:41;;;;;;;27.40;10.48;;;;;;;1.90;70.52;97162.34;4330119;33;20119;-83
2022/12/14 10:52:19;;;;;;;23.42;10.27;;;;;;;1.28;73.34;97159.47;4349212;33;20135;-83
2022/12/14 10:54:52;;;;;;;21.50;9.60;;;;;;;1.63;72.52;97161.25;4347634;33;20559;-82
2022/12/14 10:57:21;;;;;;;26.15;10.65;;;;;;;1.92;70.91;97151.28;4348133;33;20091;-81
2022/12/14 10:59:49;;;;;;;24.80;10.20;;;;;;;1.97;71.26;97158.81;4335566;33;20103;-81
2022/12/14 11:02:38;;;;;;;28.85;12.07;;;;;;;2.14;71.15;97150.78;4337716;33;20454;-82
2022/12/14 11:05:18;;;;;;;24.85;9.82;;;;;;;2.32;68.40;97145.25;4338116;33;20155;-81
2022/12/14 11:07:48;;;;;;;28.48;12.37;;;;;;;2.21;69.45;97140.41;4338708;33;20083;-82
2022/12/14 11:10:24;;;;;;;28.05;11.90;;;;;;;1.61;72.72;97129.97;4350362;33;20158;-81
2022/12/14 11:13:03;;;;;;;29.63;11.80;;;;;;;1.30;74.45;97135.69;4351002;33;20064;-81
2022/12/14 11:15:40;;;;;;;27.52;11.00;;;;;;;1.50;74.84;97124.28;4352336;33;20114;-82
2022/12/14 11:18:30;;;;;;;27.35;10.82;;;;;;;2.56;69.15;97115.81;4352166;33;20142;-83
2022/12/14 11:21:03;;;;;;;22.45;9.85;;;;;;;2.17;69.72;97122.72;4355163;33;20107;-81
2022/12/14 11:23:41;;;;;;;24.33;10.43;;;;;;;2.21;70.04;97117.50;4352014;33;20481;-81
2022/12/14 11:26:11;;;;;;;;;;;;;;;1.67;72.79;97106.91;4341127;33;20154;-82
2022/12/14 11:28:49;;;;;;;23.90;9.82;;;;;;;2.72;68.76;97111.13;4352806;33;19971;-82
2022/12/14 11:31:19;;;;;;;28.08;10.80;;;;;;;2.05;70.93;97113.69;4339763;33;20451;-82
2022/12/14 11:33:51;;;;;;;27.00;11.32;;;;;;;2.42;70.10;97102.56;4355000;33;20108;-82
2022/12/14 11:36:34;;;;;;;27.15;10.20;;;;;;;2.83;68.05;97093.84;4353742;33;20100;-82
2022/12/14 11:39:14;;;;;;;27.50;10.77;;;;;;;2.92;66.84;97085.97;4359113;33;20043;-81
2022/12/14 11:41:44;;;;;;;15.80;6.45;;;;;;;3.09;66.13;97083.78;4357587;33;20095;-83
2022/12/14 11:44:14;;;;;;;22.02;10.35;;;;;;;2.88;67.50;97071.66;4354707;33;20083;-82
2022/12/14 11:46:57;;;;;;;24.58;8.63;;;;;;;2.98;66.78;97070.50;4353002;33;20135;-81
2022/12/14 11:49:35;;;;;;;21.50;6.97;;;;;;;2.12;70.05;97056.66;4350627;33;20105;-84
2022/12/14 11:52:04;;;;;;;22.35;8.85;;;;;;;1.91;71.34;97057.19;4352072;33;20366;-82
2022/12/14 11:54:35;;;;;;;24.75;10.57;;;;;;;2.66;68.73;97062.91;4350669;33;20731;-83
2022/12/14 11:57:06;;;;;;;19.73;7.05;;;;;;;2.49;68.92;97071.84;4337010;33;20801;-82
2022/12/14 12:00:06;;;;;;;25.02;9.88;;;;;;;2.35;69.90;97061.19;4350615;33;20071;-82
2022/12/14 12:02:49;;;;;;;25.52;11.18;;;;;;;2.88;67.75;97052.09;4349700;33;20100;-83
2022/12/14 12:05:19;;;;;;;23.83;10.45;;;;;;;2.60;69.17;97043.53;4337293;33;20103;-83
2022/12/14 12:07:48;;;;;;;23.48;9.88;;;;;;;2.35;70.17;97051.00;4349428;33;20147;-83
2022/12/14 12:10:17;;;;;;;23.30;9.10;;;;;;;2.50;68.88;97047.22;4350174;33;20075;-83
2022/12/14 12:13:06;;;;;;;27.05;11.15;;;;;;;2.94;67.52;97053.63;4350593;33;20096;-83
2022/12/14 12:15:42;;;;;;;29.87;12.37;;;;;;;3.33;64.96;97051.63;4350341;33;20103;-83